sensor_id;sensor_type;location;lat;lon;timestamp;P1;durP1;ratioP1;P2;durP2;ratioP2
56233;SDS011;42141;53.240;6.580;2023-03-16T00:02:11;3.30;;;1.33;;
56233;SDS011;42141;53.240;6.580;2023-03-16T00:04:37;4.35;;;1.42;;
56233;SDS011;42141;53.240;6.580;2023-03-16T00:07:04;7.97;;;1.35;;
56233;SDS011;42141;53.240;6.580;2023-03-16T00:09:34;3.88;;;1.45;;
56233;SDS011;42141;53.240;6.580;2023-03-16T00:12:05;3.17;;;1.17;;
56233;SDS011;42141;53.240;6.580;2023-03-16T00:14:39;3.63;;;1.40;;
56233;SDS011;42141;53.240;6.580;2023-03-16T00:17:10;7.32;;;1.50;;
56233;SDS011;42141;53.240;6.580;2023-03-16T00:19:43;6.90;;;1.70;;
56233;SDS011;42141;53.240;6.580;2023-03-16T00:22:11;8.20;;;1.63;;
56233;SDS011;42141;53.240;6.580;2023-03-16T00:24:39;5.07;;;2.10;;
56233;SDS011;42141;53.240;6.580;2023-03-16T00:27:12;11.32;;;1.77;;
56233;SDS011;42141;53.240;6.580;2023-03-16T00:29:42;4.45;;;1.55;;
56233;SDS011;42141;53.240;6.580;2023-03-16T00:32:20;4.75;;;1.13;;
56233;SDS011;42141;53.240;6.580;2023-03-16T00:34:48;5.50;;;1.40;;
56233;SDS011;42141;53.240;6.580;2023-03-16T00:37:14;4.45;;;1.40;;
56233;SDS011;42141;53.240;6.580;2023-03-16T00:39:41;5.55;;;1.45;;
56233;SDS011;42141;53.240;6.580;2023-03-16T00:42:09;5.20;;;1.48;;
56233;SDS011;42141;53.240;6.580;2023-03-16T00:44:35;8.68;;;1.55;;
56233;SDS011;42141;53.240;6.580;2023-03-16T00:47:02;5.40;;;1.27;;
56233;SDS011;42141;53.240;6.580;2023-03-16T00:49:28;6.47;;;1.42;;
56233;SDS011;42141;53.240;6.580;2023-03-16T00:51:59;8.52;;;1.35;;
56233;SDS011;42141;53.240;6.580;2023-03-16T00:54:29;6.15;;;1.50;;
56233;SDS011;42141;53.240;6.580;2023-03-16T00:56:57;5.57;;;1.30;;
56233;SDS011;42141;53.240;6.580;2023-03-16T00:59:23;3.60;;;1.23;;
56233;SDS011;42141;53.240;6.580;2023-03-16T01:01:53;7.00;;;1.42;;
56233;SDS011;42141;53.240;6.580;2023-03-16T01:04:20;4.07;;;1.40;;
56233;SDS011;42141;53.240;6.580;2023-03-16T01:06:46;5.32;;;1.60;;
56233;SDS011;42141;53.240;6.580;2023-03-16T01:09:12;5.40;;;1.60;;
56233;SDS011;42141;53.240;6.580;2023-03-16T01:11:39;5.72;;;1.65;;
56233;SDS011;42141;53.240;6.580;2023-03-16T01:14:09;10.20;;;1.77;;
56233;SDS011;42141;53.240;6.580;2023-03-16T01:16:35;8.60;;;1.20;;
56233;SDS011;42141;53.240;6.580;2023-03-16T01:19:00;7.10;;;1.73;;
56233;SDS011;42141;53.240;6.580;2023-03-16T01:21:26;6.40;;;1.55;;
56233;SDS011;42141;53.240;6.580;2023-03-16T01:23:52;8.18;;;1.98;;
56233;SDS011;42141;53.240;6.580;2023-03-16T01:26:19;4.93;;;1.65;;
56233;SDS011;42141;53.240;6.580;2023-03-16T01:28:45;4.78;;;1.30;;
56233;SDS011;42141;53.240;6.580;2023-03-16T01:31:11;6.00;;;1.25;;
56233;SDS011;42141;53.240;6.580;2023-03-16T01:33:38;6.45;;;1.27;;
56233;SDS011;42141;53.240;6.580;2023-03-16T01:36:06;3.80;;;1.50;;
56233;SDS011;42141;53.240;6.580;2023-03-16T01:38:34;5.78;;;1.60;;
56233;SDS011;42141;53.240;6.580;2023-03-16T01:41:00;8.48;;;1.77;;
56233;SDS011;42141;53.240;6.580;2023-03-16T01:43:27;4.63;;;1.63;;
56233;SDS011;42141;53.240;6.580;2023-03-16T01:48:23;5.25;;;1.73;;
56233;SDS011;42141;53.240;6.580;2023-03-16T01:50:50;5.68;;;1.83;;
56233;SDS011;42141;53.240;6.580;2023-03-16T01:53:17;6.55;;;1.27;;
56233;SDS011;42141;53.240;6.580;2023-03-16T01:55:46;8.20;;;1.60;;
56233;SDS011;42141;53.240;6.580;2023-03-16T01:58:13;6.05;;;1.55;;
56233;SDS011;42141;53.240;6.580;2023-03-16T02:00:40;4.00;;;1.42;;
56233;SDS011;42141;53.240;6.580;2023-03-16T02:03:13;7.15;;;1.80;;
56233;SDS011;42141;53.240;6.580;2023-03-16T02:05:43;4.47;;;1.63;;
56233;SDS011;42141;53.240;6.580;2023-03-16T02:08:27;3.22;;;1.63;;
56233;SDS011;42141;53.240;6.580;2023-03-16T02:10:53;9.00;;;2.97;;
56233;SDS011;42141;53.240;6.580;2023-03-16T02:13:21;4.53;;;1.55;;
56233;SDS011;42141;53.240;6.580;2023-03-16T02:15:50;8.80;;;1.73;;
56233;SDS011;42141;53.240;6.580;2023-03-16T02:18:16;9.00;;;1.75;;
56233;SDS011;42141;53.240;6.580;2023-03-16T02:20:56;5.15;;;1.83;;
56233;SDS011;42141;53.240;6.580;2023-03-16T02:23:29;6.30;;;2.22;;
56233;SDS011;42141;53.240;6.580;2023-03-16T02:28:36;4.53;;;1.88;;
56233;SDS011;42141;53.240;6.580;2023-03-16T02:31:24;7.43;;;2.03;;
56233;SDS011;42141;53.240;6.580;2023-03-16T02:33:50;10.02;;;2.60;;
56233;SDS011;42141;53.240;6.580;2023-03-16T02:36:18;7.28;;;1.92;;
56233;SDS011;42141;53.240;6.580;2023-03-16T02:38:44;6.60;;;2.30;;
56233;SDS011;42141;53.240;6.580;2023-03-16T02:41:11;8.45;;;2.60;;
56233;SDS011;42141;53.240;6.580;2023-03-16T02:43:40;5.38;;;2.00;;
56233;SDS011;42141;53.240;6.580;2023-03-16T02:46:11;8.00;;;2.47;;
56233;SDS011;42141;53.240;6.580;2023-03-16T02:48:43;10.63;;;2.63;;
56233;SDS011;42141;53.240;6.580;2023-03-16T02:51:10;4.97;;;2.05;;
56233;SDS011;42141;53.240;6.580;2023-03-16T02:53:36;12.57;;;2.60;;
56233;SDS011;42141;53.240;6.580;2023-03-16T02:56:02;5.40;;;1.92;;
56233;SDS011;42141;53.240;6.580;2023-03-16T02:58:28;9.32;;;2.60;;
56233;SDS011;42141;53.240;6.580;2023-03-16T03:00:55;4.25;;;2.33;;
56233;SDS011;42141;53.240;6.580;2023-03-16T03:03:21;6.78;;;2.35;;
56233;SDS011;42141;53.240;6.580;2023-03-16T03:05:47;8.32;;;2.55;;
56233;SDS011;42141;53.240;6.580;2023-03-16T03:08:13;13.32;;;2.22;;
56233;SDS011;42141;53.240;6.580;2023-03-16T03:10:39;5.55;;;2.15;;
56233;SDS011;42141;53.240;6.580;2023-03-16T03:13:05;4.45;;;2.15;;
56233;SDS011;42141;53.240;6.580;2023-03-16T03:15:34;8.32;;;2.42;;
56233;SDS011;42141;53.240;6.580;2023-03-16T03:18:00;6.63;;;2.35;;
56233;SDS011;42141;53.240;6.580;2023-03-16T03:20:26;4.38;;;1.90;;
56233;SDS011;42141;53.240;6.580;2023-03-16T03:22:52;6.15;;;2.67;;
56233;SDS011;42141;53.240;6.580;2023-03-16T03:25:18;6.50;;;2.70;;
56233;SDS011;42141;53.240;6.580;2023-03-16T03:27:45;7.00;;;2.25;;
56233;SDS011;42141;53.240;6.580;2023-03-16T03:30:13;10.57;;;2.30;;
56233;SDS011;42141;53.240;6.580;2023-03-16T03:32:42;6.03;;;2.40;;
56233;SDS011;42141;53.240;6.580;2023-03-16T03:35:09;5.15;;;2.42;;
56233;SDS011;42141;53.240;6.580;2023-03-16T03:37:38;5.95;;;2.08;;
56233;SDS011;42141;53.240;6.580;2023-03-16T03:40:07;5.20;;;2.22;;
56233;SDS011;42141;53.240;6.580;2023-03-16T03:42:34;10.93;;;2.80;;
56233;SDS011;42141;53.240;6.580;2023-03-16T03:45:00;5.25;;;2.28;;
56233;SDS011;42141;53.240;6.580;2023-03-16T03:47:25;4.88;;;2.17;;
56233;SDS011;42141;53.240;6.580;2023-03-16T03:49:51;4.70;;;2.05;;
56233;SDS011;42141;53.240;6.580;2023-03-16T03:52:17;3.63;;;2.10;;
56233;SDS011;42141;53.240;6.580;2023-03-16T03:54:42;4.60;;;2.67;;
56233;SDS011;42141;53.240;6.580;2023-03-16T03:57:08;8.88;;;2.47;;
56233;SDS011;42141;53.240;6.580;2023-03-16T03:59:34;4.57;;;1.88;;
56233;SDS011;42141;53.240;6.580;2023-03-16T04:02:06;6.07;;;2.40;;
56233;SDS011;42141;53.240;6.580;2023-03-16T04:04:33;6.75;;;2.05;;
56233;SDS011;42141;53.240;6.580;2023-03-16T04:06:58;4.82;;;2.00;;
56233;SDS011;42141;53.240;6.580;2023-03-16T04:09:24;4.75;;;1.88;;
56233;SDS011;42141;53.240;6.580;2023-03-16T04:11:50;9.63;;;2.38;;
56233;SDS011;42141;53.240;6.580;2023-03-16T04:14:16;4.90;;;2.40;;
56233;SDS011;42141;53.240;6.580;2023-03-16T04:16:41;7.90;;;2.70;;
56233;SDS011;42141;53.240;6.580;2023-03-16T04:19:08;9.15;;;1.98;;
56233;SDS011;42141;53.240;6.580;2023-03-16T04:21:35;6.03;;;1.88;;
56233;SDS011;42141;53.240;6.580;2023-03-16T04:24:01;4.88;;;2.40;;
56233;SDS011;42141;53.240;6.580;2023-03-16T04:26:29;8.20;;;2.00;;
56233;SDS011;42141;53.240;6.580;2023-03-16T04:28:56;5.78;;;2.10;;
56233;SDS011;42141;53.240;6.580;2023-03-16T04:31:22;11.32;;;2.22;;
56233;SDS011;42141;53.240;6.580;2023-03-16T04:33:48;8.75;;;2.30;;
56233;SDS011;42141;53.240;6.580;2023-03-16T04:36:14;6.90;;;2.15;;
56233;SDS011;42141;53.240;6.580;2023-03-16T04:38:40;4.95;;;1.92;;
56233;SDS011;42141;53.240;6.580;2023-03-16T04:41:06;7.90;;;2.40;;
56233;SDS011;42141;53.240;6.580;2023-03-16T04:43:32;6.60;;;2.28;;
56233;SDS011;42141;53.240;6.580;2023-03-16T04:45:59;6.13;;;2.47;;
56233;SDS011;42141;53.240;6.580;2023-03-16T04:48:26;7.15;;;1.98;;
56233;SDS011;42141;53.240;6.580;2023-03-16T04:50:52;8.02;;;2.38;;
56233;SDS011;42141;53.240;6.580;2023-03-16T04:53:18;6.55;;;2.50;;
56233;SDS011;42141;53.240;6.580;2023-03-16T04:55:44;6.97;;;2.20;;
56233;SDS011;42141;53.240;6.580;2023-03-16T04:58:10;5.63;;;2.60;;
56233;SDS011;42141;53.240;6.580;2023-03-16T05:00:38;4.00;;;1.90;;
56233;SDS011;42141;53.240;6.580;2023-03-16T05:03:05;6.07;;;2.63;;
56233;SDS011;42141;53.240;6.580;2023-03-16T05:05:30;4.80;;;2.20;;
56233;SDS011;42141;53.240;6.580;2023-03-16T05:07:56;8.02;;;2.20;;
56233;SDS011;42141;53.240;6.580;2023-03-16T05:10:22;4.85;;;1.55;;
56233;SDS011;42141;53.240;6.580;2023-03-16T05:12:48;4.97;;;2.20;;
56233;SDS011;42141;53.240;6.580;2023-03-16T05:15:13;7.93;;;2.28;;
56233;SDS011;42141;53.240;6.580;2023-03-16T05:17:40;3.53;;;2.40;;
56233;SDS011;42141;53.240;6.580;2023-03-16T05:20:06;6.57;;;2.45;;
56233;SDS011;42141;53.240;6.580;2023-03-16T05:22:36;7.20;;;2.80;;
56233;SDS011;42141;53.240;6.580;2023-03-16T05:25:04;8.10;;;2.90;;
56233;SDS011;42141;53.240;6.580;2023-03-16T05:27:30;8.25;;;2.55;;
56233;SDS011;42141;53.240;6.580;2023-03-16T05:29:56;4.90;;;2.22;;
56233;SDS011;42141;53.240;6.580;2023-03-16T05:32:21;3.45;;;2.22;;
56233;SDS011;42141;53.240;6.580;2023-03-16T05:34:48;6.78;;;2.38;;
56233;SDS011;42141;53.240;6.580;2023-03-16T05:37:14;6.18;;;2.35;;
56233;SDS011;42141;53.240;6.580;2023-03-16T05:39:39;7.40;;;2.50;;
56233;SDS011;42141;53.240;6.580;2023-03-16T05:42:05;10.18;;;3.72;;
56233;SDS011;42141;53.240;6.580;2023-03-16T05:44:31;5.55;;;1.98;;
56233;SDS011;42141;53.240;6.580;2023-03-16T05:46:57;6.18;;;3.15;;
56233;SDS011;42141;53.240;6.580;2023-03-16T05:49:23;4.65;;;2.72;;
56233;SDS011;42141;53.240;6.580;2023-03-16T05:51:49;4.50;;;2.20;;
56233;SDS011;42141;53.240;6.580;2023-03-16T05:54:15;4.57;;;2.50;;
56233;SDS011;42141;53.240;6.580;2023-03-16T05:56:41;4.03;;;2.40;;
56233;SDS011;42141;53.240;6.580;2023-03-16T05:59:06;6.72;;;2.83;;
56233;SDS011;42141;53.240;6.580;2023-03-16T06:01:32;7.35;;;2.58;;
56233;SDS011;42141;53.240;6.580;2023-03-16T06:03:58;6.88;;;2.83;;
56233;SDS011;42141;53.240;6.580;2023-03-16T06:06:26;5.30;;;2.63;;
56233;SDS011;42141;53.240;6.580;2023-03-16T06:08:52;8.93;;;2.60;;
56233;SDS011;42141;53.240;6.580;2023-03-16T06:11:18;10.88;;;3.65;;
56233;SDS011;42141;53.240;6.580;2023-03-16T06:13:44;4.80;;;2.67;;
56233;SDS011;42141;53.240;6.580;2023-03-16T06:16:10;8.40;;;2.88;;
56233;SDS011;42141;53.240;6.580;2023-03-16T06:18:38;5.10;;;3.00;;
56233;SDS011;42141;53.240;6.580;2023-03-16T06:21:05;7.55;;;2.67;;
56233;SDS011;42141;53.240;6.580;2023-03-16T06:23:31;5.32;;;2.50;;
56233;SDS011;42141;53.240;6.580;2023-03-16T06:25:57;6.97;;;3.17;;
56233;SDS011;42141;53.240;6.580;2023-03-16T06:28:24;6.75;;;3.00;;
56233;SDS011;42141;53.240;6.580;2023-03-16T06:30:54;7.22;;;2.72;;
56233;SDS011;42141;53.240;6.580;2023-03-16T06:33:20;5.07;;;2.85;;
56233;SDS011;42141;53.240;6.580;2023-03-16T06:35:46;5.55;;;2.90;;
56233;SDS011;42141;53.240;6.580;2023-03-16T06:38:12;5.43;;;2.45;;
56233;SDS011;42141;53.240;6.580;2023-03-16T06:40:38;8.20;;;3.20;;
56233;SDS011;42141;53.240;6.580;2023-03-16T06:43:05;10.15;;;3.33;;
56233;SDS011;42141;53.240;6.580;2023-03-16T06:45:31;10.20;;;4.55;;
56233;SDS011;42141;53.240;6.580;2023-03-16T06:47:57;8.82;;;3.35;;
56233;SDS011;42141;53.240;6.580;2023-03-16T06:50:23;7.00;;;2.75;;
56233;SDS011;42141;53.240;6.580;2023-03-16T06:52:49;7.13;;;2.63;;
56233;SDS011;42141;53.240;6.580;2023-03-16T06:55:15;6.88;;;2.58;;
56233;SDS011;42141;53.240;6.580;2023-03-16T06:57:41;8.43;;;2.78;;
56233;SDS011;42141;53.240;6.580;2023-03-16T07:00:08;9.93;;;2.60;;
56233;SDS011;42141;53.240;6.580;2023-03-16T07:02:38;4.25;;;2.65;;
56233;SDS011;42141;53.240;6.580;2023-03-16T07:05:05;5.70;;;3.03;;
56233;SDS011;42141;53.240;6.580;2023-03-16T07:07:32;5.95;;;2.70;;
56233;SDS011;42141;53.240;6.580;2023-03-16T07:09:58;4.60;;;2.30;;
56233;SDS011;42141;53.240;6.580;2023-03-16T07:12:23;8.18;;;2.72;;
56233;SDS011;42141;53.240;6.580;2023-03-16T07:14:49;5.35;;;2.60;;
56233;SDS011;42141;53.240;6.580;2023-03-16T07:17:15;9.18;;;2.30;;
56233;SDS011;42141;53.240;6.580;2023-03-16T07:19:41;5.85;;;2.75;;
56233;SDS011;42141;53.240;6.580;2023-03-16T07:22:07;11.52;;;2.78;;
56233;SDS011;42141;53.240;6.580;2023-03-16T07:24:33;5.32;;;2.88;;
56233;SDS011;42141;53.240;6.580;2023-03-16T07:26:59;9.00;;;3.63;;
56233;SDS011;42141;53.240;6.580;2023-03-16T07:29:26;6.45;;;2.55;;
56233;SDS011;42141;53.240;6.580;2023-03-16T07:31:52;10.43;;;2.30;;
56233;SDS011;42141;53.240;6.580;2023-03-16T07:34:19;4.30;;;2.45;;
56233;SDS011;42141;53.240;6.580;2023-03-16T07:36:45;8.57;;;2.70;;
56233;SDS011;42141;53.240;6.580;2023-03-16T07:39:13;6.28;;;2.45;;
56233;SDS011;42141;53.240;6.580;2023-03-16T07:41:41;2.83;;;2.00;;
56233;SDS011;42141;53.240;6.580;2023-03-16T07:44:08;7.28;;;2.70;;
56233;SDS011;42141;53.240;6.580;2023-03-16T07:46:35;4.43;;;2.53;;
56233;SDS011;42141;53.240;6.580;2023-03-16T07:49:01;6.40;;;2.72;;
56233;SDS011;42141;53.240;6.580;2023-03-16T07:51:27;7.05;;;2.13;;
56233;SDS011;42141;53.240;6.580;2023-03-16T07:53:52;6.45;;;2.60;;
56233;SDS011;42141;53.240;6.580;2023-03-16T07:56:18;6.00;;;2.85;;
56233;SDS011;42141;53.240;6.580;2023-03-16T07:58:45;6.80;;;2.17;;
56233;SDS011;42141;53.240;6.580;2023-03-16T08:01:11;5.93;;;2.97;;
56233;SDS011;42141;53.240;6.580;2023-03-16T08:03:37;5.93;;;2.55;;
56233;SDS011;42141;53.240;6.580;2023-03-16T08:06:03;7.32;;;2.22;;
56233;SDS011;42141;53.240;6.580;2023-03-16T08:08:29;4.97;;;2.65;;
56233;SDS011;42141;53.240;6.580;2023-03-16T08:10:56;8.50;;;2.70;;
56233;SDS011;42141;53.240;6.580;2023-03-16T08:13:22;3.92;;;2.40;;
56233;SDS011;42141;53.240;6.580;2023-03-16T08:15:48;6.97;;;3.20;;
56233;SDS011;42141;53.240;6.580;2023-03-16T08:18:22;4.78;;;2.72;;
56233;SDS011;42141;53.240;6.580;2023-03-16T08:20:49;6.63;;;2.90;;
56233;SDS011;42141;53.240;6.580;2023-03-16T08:23:14;7.18;;;3.40;;
56233;SDS011;42141;53.240;6.580;2023-03-16T08:25:41;5.28;;;2.47;;
56233;SDS011;42141;53.240;6.580;2023-03-16T08:28:07;7.75;;;2.30;;
56233;SDS011;42141;53.240;6.580;2023-03-16T08:30:34;4.90;;;2.67;;
56233;SDS011;42141;53.240;6.580;2023-03-16T08:33:00;3.55;;;2.30;;
56233;SDS011;42141;53.240;6.580;2023-03-16T08:35:27;5.70;;;2.60;;
56233;SDS011;42141;53.240;6.580;2023-03-16T08:37:53;7.20;;;2.85;;
56233;SDS011;42141;53.240;6.580;2023-03-16T08:40:20;3.88;;;2.40;;
56233;SDS011;42141;53.240;6.580;2023-03-16T08:42:47;5.53;;;2.65;;
56233;SDS011;42141;53.240;6.580;2023-03-16T08:45:16;4.47;;;2.35;;
56233;SDS011;42141;53.240;6.580;2023-03-16T08:47:44;6.50;;;2.72;;
56233;SDS011;42141;53.240;6.580;2023-03-16T08:50:14;5.63;;;2.88;;
56233;SDS011;42141;53.240;6.580;2023-03-16T08:52:40;6.22;;;2.63;;
56233;SDS011;42141;53.240;6.580;2023-03-16T08:55:07;9.23;;;2.83;;
56233;SDS011;42141;53.240;6.580;2023-03-16T08:57:34;5.63;;;2.42;;
56233;SDS011;42141;53.240;6.580;2023-03-16T09:00:02;5.53;;;2.53;;
56233;SDS011;42141;53.240;6.580;2023-03-16T09:02:36;5.20;;;2.47;;
56233;SDS011;42141;53.240;6.580;2023-03-16T09:05:05;6.38;;;2.80;;
56233;SDS011;42141;53.240;6.580;2023-03-16T09:07:32;9.55;;;3.05;;
56233;SDS011;42141;53.240;6.580;2023-03-16T09:10:00;5.18;;;2.78;;
56233;SDS011;42141;53.240;6.580;2023-03-16T09:12:30;6.25;;;2.83;;
56233;SDS011;42141;53.240;6.580;2023-03-16T09:14:56;5.28;;;2.80;;
56233;SDS011;42141;53.240;6.580;2023-03-16T09:17:22;7.63;;;2.50;;
56233;SDS011;42141;53.240;6.580;2023-03-16T09:19:48;4.70;;;2.30;;
56233;SDS011;42141;53.240;6.580;2023-03-16T09:22:14;5.38;;;2.65;;
56233;SDS011;42141;53.240;6.580;2023-03-16T09:24:40;5.50;;;3.10;;
56233;SDS011;42141;53.240;6.580;2023-03-16T09:27:06;5.70;;;2.58;;
56233;SDS011;42141;53.240;6.580;2023-03-16T09:29:32;5.38;;;2.63;;
56233;SDS011;42141;53.240;6.580;2023-03-16T09:31:58;3.38;;;2.20;;
56233;SDS011;42141;53.240;6.580;2023-03-16T09:34:24;4.97;;;3.10;;
56233;SDS011;42141;53.240;6.580;2023-03-16T09:36:49;7.75;;;2.90;;
56233;SDS011;42141;53.240;6.580;2023-03-16T09:39:15;6.45;;;2.83;;
56233;SDS011;42141;53.240;6.580;2023-03-16T09:41:47;8.25;;;3.17;;
56233;SDS011;42141;53.240;6.580;2023-03-16T09:46:53;7.30;;;2.75;;
56233;SDS011;42141;53.240;6.580;2023-03-16T09:49:29;6.07;;;2.80;;
56233;SDS011;42141;53.240;6.580;2023-03-16T09:55:04;11.05;;;3.05;;
56233;SDS011;42141;53.240;6.580;2023-03-16T09:57:41;8.32;;;2.75;;
56233;SDS011;42141;53.240;6.580;2023-03-16T10:03:29;4.72;;;2.78;;
56233;SDS011;42141;53.240;6.580;2023-03-16T10:05:28;9.80;;;3.38;;
56233;SDS011;42141;53.240;6.580;2023-03-16T10:16:35;2.83;;;1.88;;
56233;SDS011;42141;53.240;6.580;2023-03-16T10:19:11;4.55;;;2.78;;
56233;SDS011;42141;53.240;6.580;2023-03-16T10:21:40;4.32;;;2.58;;
56233;SDS011;42141;53.240;6.580;2023-03-16T10:24:36;6.05;;;3.08;;
56233;SDS011;42141;53.240;6.580;2023-03-16T10:27:19;9.98;;;2.65;;
56233;SDS011;42141;53.240;6.580;2023-03-16T10:29:51;8.70;;;3.67;;
56233;SDS011;42141;53.240;6.580;2023-03-16T10:32:17;7.82;;;3.47;;
56233;SDS011;42141;53.240;6.580;2023-03-16T10:35:04;8.43;;;3.13;;
56233;SDS011;42141;53.240;6.580;2023-03-16T10:37:38;7.60;;;3.78;;
56233;SDS011;42141;53.240;6.580;2023-03-16T10:40:05;6.90;;;2.95;;
56233;SDS011;42141;53.240;6.580;2023-03-16T10:42:34;10.23;;;3.42;;
56233;SDS011;42141;53.240;6.580;2023-03-16T10:45:01;7.78;;;2.90;;
56233;SDS011;42141;53.240;6.580;2023-03-16T10:47:29;6.13;;;2.90;;
56233;SDS011;42141;53.240;6.580;2023-03-16T10:49:56;6.63;;;3.60;;
56233;SDS011;42141;53.240;6.580;2023-03-16T10:52:32;5.88;;;2.95;;
56233;SDS011;42141;53.240;6.580;2023-03-16T10:55:18;10.60;;;3.95;;
56233;SDS011;42141;53.240;6.580;2023-03-16T10:57:51;7.38;;;3.50;;
56233;SDS011;42141;53.240;6.580;2023-03-16T11:00:29;7.95;;;3.33;;
56233;SDS011;42141;53.240;6.580;2023-03-16T11:03:00;4.35;;;3.38;;
56233;SDS011;42141;53.240;6.580;2023-03-16T11:05:37;6.10;;;3.40;;
56233;SDS011;42141;53.240;6.580;2023-03-16T11:10:37;8.55;;;3.53;;
56233;SDS011;42141;53.240;6.580;2023-03-16T11:13:18;5.78;;;3.10;;
56233;SDS011;42141;53.240;6.580;2023-03-16T11:18:34;7.75;;;3.25;;
56233;SDS011;42141;53.240;6.580;2023-03-16T11:21:55;6.20;;;3.28;;
56233;SDS011;42141;53.240;6.580;2023-03-16T11:24:16;6.20;;;3.88;;
56233;SDS011;42141;53.240;6.580;2023-03-16T11:26:52;5.43;;;3.17;;
56233;SDS011;42141;53.240;6.580;2023-03-16T11:29:26;6.35;;;3.30;;
56233;SDS011;42141;53.240;6.580;2023-03-16T11:32:20;5.55;;;2.97;;
56233;SDS011;42141;53.240;6.580;2023-03-16T11:34:53;16.95;;;3.95;;
56233;SDS011;42141;53.240;6.580;2023-03-16T11:45:43;6.32;;;2.40;;
56233;SDS011;42141;53.240;6.580;2023-03-16T11:48:27;6.40;;;2.90;;
56233;SDS011;42141;53.240;6.580;2023-03-16T11:54:25;6.95;;;3.17;;
56233;SDS011;42141;53.240;6.580;2023-03-16T11:56:59;7.22;;;3.00;;
56233;SDS011;42141;53.240;6.580;2023-03-16T12:11:01;6.97;;;2.72;;
56233;SDS011;42141;53.240;6.580;2023-03-16T12:13:32;4.00;;;2.10;;
56233;SDS011;42141;53.240;6.580;2023-03-16T12:18:48;5.95;;;2.67;;
56233;SDS011;42141;53.240;6.580;2023-03-16T12:21:38;7.75;;;2.75;;
56233;SDS011;42141;53.240;6.580;2023-03-16T12:24:15;4.93;;;2.40;;
56233;SDS011;42141;53.240;6.580;2023-03-16T12:29:26;7.35;;;2.30;;
56233;SDS011;42141;53.240;6.580;2023-03-16T12:32:06;5.53;;;2.08;;
56233;SDS011;42141;53.240;6.580;2023-03-16T12:34:53;10.20;;;3.30;;
56233;SDS011;42141;53.240;6.580;2023-03-16T12:37:41;4.60;;;2.25;;
56233;SDS011;42141;53.240;6.580;2023-03-16T12:40:18;4.78;;;2.13;;
56233;SDS011;42141;53.240;6.580;2023-03-16T12:47:53;6.03;;;2.58;;
56233;SDS011;42141;53.240;6.580;2023-03-16T12:52:55;4.28;;;2.10;;
56233;SDS011;42141;53.240;6.580;2023-03-16T12:58:04;2.70;;;1.92;;
56233;SDS011;42141;53.240;6.580;2023-03-16T13:00:35;3.53;;;2.40;;
56233;SDS011;42141;53.240;6.580;2023-03-16T13:03:03;4.00;;;2.25;;
56233;SDS011;42141;53.240;6.580;2023-03-16T13:05:36;5.05;;;2.05;;
56233;SDS011;42141;53.240;6.580;2023-03-16T13:08:15;4.17;;;1.87;;
56233;SDS011;42141;53.240;6.580;2023-03-16T13:10:58;4.82;;;2.10;;
56233;SDS011;42141;53.240;6.580;2023-03-16T13:13:34;4.30;;;2.25;;
56233;SDS011;42141;53.240;6.580;2023-03-16T13:16:31;8.13;;;2.13;;
56233;SDS011;42141;53.240;6.580;2023-03-16T13:21:58;4.50;;;2.22;;
56233;SDS011;42141;53.240;6.580;2023-03-16T13:24:27;6.32;;;2.28;;
56233;SDS011;42141;53.240;6.580;2023-03-16T13:27:02;4.22;;;2.20;;
56233;SDS011;42141;53.240;6.580;2023-03-16T13:29:31;5.30;;;2.05;;
56233;SDS011;42141;53.240;6.580;2023-03-16T13:31:58;3.78;;;2.17;;
56233;SDS011;42141;53.240;6.580;2023-03-16T13:34:30;4.03;;;2.30;;
56233;SDS011;42141;53.240;6.580;2023-03-16T13:36:58;9.05;;;2.40;;
56233;SDS011;42141;53.240;6.580;2023-03-16T13:39:26;5.75;;;2.63;;
56233;SDS011;42141;53.240;6.580;2023-03-16T13:42:11;4.38;;;2.30;;
56233;SDS011;42141;53.240;6.580;2023-03-16T13:44:42;3.35;;;2.20;;
56233;SDS011;42141;53.240;6.580;2023-03-16T13:47:15;7.45;;;2.15;;
56233;SDS011;42141;53.240;6.580;2023-03-16T13:49:42;5.18;;;2.08;;
56233;SDS011;42141;53.240;6.580;2023-03-16T13:52:42;7.63;;;2.60;;
56233;SDS011;42141;53.240;6.580;2023-03-16T13:55:05;2.88;;;1.80;;
56233;SDS011;42141;53.240;6.580;2023-03-16T13:57:40;3.78;;;2.20;;
56233;SDS011;42141;53.240;6.580;2023-03-16T14:00:18;3.83;;;2.08;;
56233;SDS011;42141;53.240;6.580;2023-03-16T14:02:53;5.10;;;1.88;;
56233;SDS011;42141;53.240;6.580;2023-03-16T14:05:27;10.07;;;2.60;;
56233;SDS011;42141;53.240;6.580;2023-03-16T14:07:56;4.80;;;2.70;;
56233;SDS011;42141;53.240;6.580;2023-03-16T14:10:25;5.78;;;2.13;;
56233;SDS011;42141;53.240;6.580;2023-03-16T14:13:06;4.68;;;2.10;;
56233;SDS011;42141;53.240;6.580;2023-03-16T14:15:34;4.05;;;2.10;;
56233;SDS011;42141;53.240;6.580;2023-03-16T14:18:14;5.18;;;2.30;;
56233;SDS011;42141;53.240;6.580;2023-03-16T14:20:45;5.15;;;2.35;;
56233;SDS011;42141;53.240;6.580;2023-03-16T14:23:15;4.45;;;1.90;;
56233;SDS011;42141;53.240;6.580;2023-03-16T14:25:43;4.50;;;2.42;;
56233;SDS011;42141;53.240;6.580;2023-03-16T14:28:12;6.15;;;2.20;;
56233;SDS011;42141;53.240;6.580;2023-03-16T14:30:48;9.30;;;2.45;;
56233;SDS011;42141;53.240;6.580;2023-03-16T14:33:25;4.10;;;2.17;;
56233;SDS011;42141;53.240;6.580;2023-03-16T14:35:57;4.80;;;2.65;;
56233;SDS011;42141;53.240;6.580;2023-03-16T14:38:28;4.03;;;2.30;;
56233;SDS011;42141;53.240;6.580;2023-03-16T14:41:04;9.13;;;2.53;;
56233;SDS011;42141;53.240;6.580;2023-03-16T14:43:37;4.72;;;2.10;;
56233;SDS011;42141;53.240;6.580;2023-03-16T14:46:12;5.90;;;2.85;;
56233;SDS011;42141;53.240;6.580;2023-03-16T14:48:41;4.75;;;2.13;;
56233;SDS011;42141;53.240;6.580;2023-03-16T14:51:08;3.60;;;1.83;;
56233;SDS011;42141;53.240;6.580;2023-03-16T14:53:37;5.50;;;2.40;;
56233;SDS011;42141;53.240;6.580;2023-03-16T14:56:08;4.60;;;2.28;;
56233;SDS011;42141;53.240;6.580;2023-03-16T14:58:37;5.47;;;2.53;;
56233;SDS011;42141;53.240;6.580;2023-03-16T15:01:03;4.32;;;2.17;;
56233;SDS011;42141;53.240;6.580;2023-03-16T15:03:32;4.68;;;2.40;;
56233;SDS011;42141;53.240;6.580;2023-03-16T15:05:59;3.33;;;2.20;;
56233;SDS011;42141;53.240;6.580;2023-03-16T15:08:27;4.68;;;1.73;;
56233;SDS011;42141;53.240;6.580;2023-03-16T15:10:56;3.90;;;2.00;;
56233;SDS011;42141;53.240;6.580;2023-03-16T15:13:25;5.93;;;2.30;;
56233;SDS011;42141;53.240;6.580;2023-03-16T15:16:17;4.22;;;2.53;;
56233;SDS011;42141;53.240;6.580;2023-03-16T15:18:44;4.25;;;2.22;;
56233;SDS011;42141;53.240;6.580;2023-03-16T15:21:11;6.05;;;2.25;;
56233;SDS011;42141;53.240;6.580;2023-03-16T15:23:42;7.18;;;1.98;;
56233;SDS011;42141;53.240;6.580;2023-03-16T15:26:16;4.70;;;2.22;;
56233;SDS011;42141;53.240;6.580;2023-03-16T15:28:46;5.45;;;2.13;;
56233;SDS011;42141;53.240;6.580;2023-03-16T15:31:12;6.03;;;1.80;;
56233;SDS011;42141;53.240;6.580;2023-03-16T15:33:41;5.95;;;2.10;;
56233;SDS011;42141;53.240;6.580;2023-03-16T15:36:19;3.35;;;2.00;;
56233;SDS011;42141;53.240;6.580;2023-03-16T15:38:47;4.82;;;2.38;;
56233;SDS011;42141;53.240;6.580;2023-03-16T15:41:15;2.60;;;1.73;;
56233;SDS011;42141;53.240;6.580;2023-03-16T15:43:41;4.13;;;1.92;;
56233;SDS011;42141;53.240;6.580;2023-03-16T15:46:09;3.38;;;1.70;;
56233;SDS011;42141;53.240;6.580;2023-03-16T15:48:36;5.30;;;1.98;;
56233;SDS011;42141;53.240;6.580;2023-03-16T15:53:53;5.00;;;1.98;;
56233;SDS011;42141;53.240;6.580;2023-03-16T15:56:24;5.38;;;2.90;;
56233;SDS011;42141;53.240;6.580;2023-03-16T15:58:58;5.63;;;2.15;;
56233;SDS011;42141;53.240;6.580;2023-03-16T16:01:29;5.53;;;2.47;;
56233;SDS011;42141;53.240;6.580;2023-03-16T16:03:58;4.95;;;2.00;;
56233;SDS011;42141;53.240;6.580;2023-03-16T16:06:24;4.88;;;2.10;;
56233;SDS011;42141;53.240;6.580;2023-03-16T16:08:52;5.53;;;2.30;;
56233;SDS011;42141;53.240;6.580;2023-03-16T16:11:26;2.53;;;2.03;;
56233;SDS011;42141;53.240;6.580;2023-03-16T16:13:53;5.30;;;1.63;;